sensor_id;sensor_type;location;lat;lon;timestamp;temperature;humidity
39525;DHT22;25203;50.754;6.978;2023-03-31T00:01:10;11.60;99.90
39525;DHT22;25203;50.754;6.978;2023-03-31T00:03:12;11.60;99.90
39525;DHT22;25203;50.754;6.978;2023-03-31T00:05:13;11.60;99.90
39525;DHT22;25203;50.754;6.978;2023-03-31T00:07:18;11.60;99.90
39525;DHT22;25203;50.754;6.978;2023-03-31T00:09:21;11.60;99.90
39525;DHT22;25203;50.754;6.978;2023-03-31T00:11:22;11.60;99.90
39525;DHT22;25203;50.754;6.978;2023-03-31T00:13:22;11.60;99.90
39525;DHT22;25203;50.754;6.978;2023-03-31T00:15:23;11.50;99.90
39525;DHT22;25203;50.754;6.978;2023-03-31T00:17:24;11.60;99.90
39525;DHT22;25203;50.754;6.978;2023-03-31T00:19:24;11.50;99.90
39525;DHT22;25203;50.754;6.978;2023-03-31T00:21:28;11.50;99.90
39525;DHT22;25203;50.754;6.978;2023-03-31T00:23:33;11.40;99.90
39525;DHT22;25203;50.754;6.978;2023-03-31T00:25:33;11.40;99.90
39525;DHT22;25203;50.754;6.978;2023-03-31T00:27:35;11.30;99.90
39525;DHT22;25203;50.754;6.978;2023-03-31T00:29:36;11.30;99.90
39525;DHT22;25203;50.754;6.978;2023-03-31T00:31:40;11.20;99.90
39525;DHT22;25203;50.754;6.978;2023-03-31T00:33:41;11.20;99.90
39525;DHT22;25203;50.754;6.978;2023-03-31T00:35:41;11.20;99.90
39525;DHT22;25203;50.754;6.978;2023-03-31T00:37:42;11.20;99.90
39525;DHT22;25203;50.754;6.978;2023-03-31T00:39:45;11.20;99.90
39525;DHT22;25203;50.754;6.978;2023-03-31T00:41:45;11.10;99.90
39525;DHT22;25203;50.754;6.978;2023-03-31T00:44:05;11.10;99.90
39525;DHT22;25203;50.754;6.978;2023-03-31T00:48:12;11.10;99.90
39525;DHT22;25203;50.754;6.978;2023-03-31T00:50:27;11.10;99.90
39525;DHT22;25203;50.754;6.978;2023-03-31T00:52:34;11.10;99.90
39525;DHT22;25203;50.754;6.978;2023-03-31T00:54:37;11.00;99.90
39525;DHT22;25203;50.754;6.978;2023-03-31T00:56:41;11.00;99.90
39525;DHT22;25203;50.754;6.978;2023-03-31T00:58:44;10.90;99.90
39525;DHT22;25203;50.754;6.978;2023-03-31T01:00:46;10.90;99.90
39525;DHT22;25203;50.754;6.978;2023-03-31T01:02:57;10.90;99.90
39525;DHT22;25203;50.754;6.978;2023-03-31T01:04:59;10.90;99.90
39525;DHT22;25203;50.754;6.978;2023-03-31T01:07:17;10.80;99.90
39525;DHT22;25203;50.754;6.978;2023-03-31T01:09:19;10.80;99.90
39525;DHT22;25203;50.754;6.978;2023-03-31T01:11:23;10.80;99.90
39525;DHT22;25203;50.754;6.978;2023-03-31T01:13:26;10.80;99.90
39525;DHT22;25203;50.754;6.978;2023-03-31T01:15:27;10.80;99.90
39525;DHT22;25203;50.754;6.978;2023-03-31T01:17:27;10.80;99.90
39525;DHT22;25203;50.754;6.978;2023-03-31T01:19:56;10.80;99.90
39525;DHT22;25203;50.754;6.978;2023-03-31T01:24:50;10.80;99.90
39525;DHT22;25203;50.754;6.978;2023-03-31T01:37:55;11.00;99.90
39525;DHT22;25203;50.754;6.978;2023-03-31T01:39:45;11.10;99.90
39525;DHT22;25203;50.754;6.978;2023-03-31T01:41:58;11.20;99.90
39525;DHT22;25203;50.754;6.978;2023-03-31T01:46:30;11.50;99.90
39525;DHT22;25203;50.754;6.978;2023-03-31T01:51:05;11.70;99.90
39525;DHT22;25203;50.754;6.978;2023-03-31T01:53:19;11.80;99.90
39525;DHT22;25203;50.754;6.978;2023-03-31T01:57:52;11.80;99.90
39525;DHT22;25203;50.754;6.978;2023-03-31T02:04:18;11.70;99.90
39525;DHT22;25203;50.754;6.978;2023-03-31T02:06:25;11.60;99.90
39525;DHT22;25203;50.754;6.978;2023-03-31T02:08:55;11.60;99.90
39525;DHT22;25203;50.754;6.978;2023-03-31T02:10:58;11.50;99.90
39525;DHT22;25203;50.754;6.978;2023-03-31T02:13:00;11.40;99.90
39525;DHT22;25203;50.754;6.978;2023-03-31T02:15:04;11.30;99.90
39525;DHT22;25203;50.754;6.978;2023-03-31T02:17:10;11.30;99.90
39525;DHT22;25203;50.754;6.978;2023-03-31T02:19:16;11.20;99.90
39525;DHT22;25203;50.754;6.978;2023-03-31T02:21:19;11.20;99.90
39525;DHT22;25203;50.754;6.978;2023-03-31T02:23:24;11.20;99.90
39525;DHT22;25203;50.754;6.978;2023-03-31T02:25:34;11.20;99.90
39525;DHT22;25203;50.754;6.978;2023-03-31T02:27:41;11.20;99.90
39525;DHT22;25203;50.754;6.978;2023-03-31T02:29:43;11.20;99.90
39525;DHT22;25203;50.754;6.978;2023-03-31T02:32:12;11.10;99.90
39525;DHT22;25203;50.754;6.978;2023-03-31T02:34:14;11.10;99.90
39525;DHT22;25203;50.754;6.978;2023-03-31T02:36:16;11.10;99.90
39525;DHT22;25203;50.754;6.978;2023-03-31T02:38:17;11.00;99.90
39525;DHT22;25203;50.754;6.978;2023-03-31T02:40:20;11.00;99.90
39525;DHT22;25203;50.754;6.978;2023-03-31T02:42:21;10.90;99.90
39525;DHT22;25203;50.754;6.978;2023-03-31T02:44:22;10.90;99.90
39525;DHT22;25203;50.754;6.978;2023-03-31T02:46:24;10.90;99.90
39525;DHT22;25203;50.754;6.978;2023-03-31T02:48:28;10.90;99.90
39525;DHT22;25203;50.754;6.978;2023-03-31T02:50:37;11.00;99.90
39525;DHT22;25203;50.754;6.978;2023-03-31T02:52:59;11.00;99.90
39525;DHT22;25203;50.754;6.978;2023-03-31T03:17:46;11.30;99.90
39525;DHT22;25203;50.754;6.978;2023-03-31T03:19:53;11.30;99.90
39525;DHT22;25203;50.754;6.978;2023-03-31T03:21:54;11.40;99.90
39525;DHT22;25203;50.754;6.978;2023-03-31T03:23:55;11.40;99.90
39525;DHT22;25203;50.754;6.978;2023-03-31T03:25:56;11.40;99.90
39525;DHT22;25203;50.754;6.978;2023-03-31T03:27:57;11.40;99.90
39525;DHT22;25203;50.754;6.978;2023-03-31T03:29:58;11.30;99.90
39525;DHT22;25203;50.754;6.978;2023-03-31T03:31:58;11.30;99.90
39525;DHT22;25203;50.754;6.978;2023-03-31T03:33:59;11.40;99.90
39525;DHT22;25203;50.754;6.978;2023-03-31T03:36:00;11.30;99.90
39525;DHT22;25203;50.754;6.978;2023-03-31T03:38:01;11.30;99.90
39525;DHT22;25203;50.754;6.978;2023-03-31T03:40:02;11.30;99.90
39525;DHT22;25203;50.754;6.978;2023-03-31T03:42:05;11.30;99.90
39525;DHT22;25203;50.754;6.978;2023-03-31T03:44:05;11.20;99.90
39525;DHT22;25203;50.754;6.978;2023-03-31T03:46:06;11.20;99.90
39525;DHT22;25203;50.754;6.978;2023-03-31T03:48:07;11.30;99.90
39525;DHT22;25203;50.754;6.978;2023-03-31T03:50:08;11.30;99.90
39525;DHT22;25203;50.754;6.978;2023-03-31T03:52:09;11.30;99.90
39525;DHT22;25203;50.754;6.978;2023-03-31T03:54:09;11.30;99.90
39525;DHT22;25203;50.754;6.978;2023-03-31T03:56:10;11.30;99.90
39525;DHT22;25203;50.754;6.978;2023-03-31T03:58:10;11.30;99.90
39525;DHT22;25203;50.754;6.978;2023-03-31T04:00:11;11.30;99.90
39525;DHT22;25203;50.754;6.978;2023-03-31T04:02:12;11.30;99.90
39525;DHT22;25203;50.754;6.978;2023-03-31T04:04:13;11.20;99.90
39525;DHT22;25203;50.754;6.978;2023-03-31T04:06:14;11.20;99.90
39525;DHT22;25203;50.754;6.978;2023-03-31T04:08:15;11.20;99.90
39525;DHT22;25203;50.754;6.978;2023-03-31T04:10:16;11.20;99.90
39525;DHT22;25203;50.754;6.978;2023-03-31T04:12:17;11.20;99.90
39525;DHT22;25203;50.754;6.978;2023-03-31T04:14:17;11.20;99.90
39525;DHT22;25203;50.754;6.978;2023-03-31T04:16:18;11.20;99.90
39525;DHT22;25203;50.754;6.978;2023-03-31T04:18:19;11.20;99.90
39525;DHT22;25203;50.754;6.978;2023-03-31T04:20:22;11.10;99.90
39525;DHT22;25203;50.754;6.978;2023-03-31T04:22:27;11.00;99.90
39525;DHT22;25203;50.754;6.978;2023-03-31T04:24:34;11.00;99.90
39525;DHT22;25203;50.754;6.978;2023-03-31T04:26:38;11.00;99.90
39525;DHT22;25203;50.754;6.978;2023-03-31T04:28:42;11.00;99.90
39525;DHT22;25203;50.754;6.978;2023-03-31T04:30:45;11.00;99.90
39525;DHT22;25203;50.754;6.978;2023-03-31T04:32:46;11.00;99.90
39525;DHT22;25203;50.754;6.978;2023-03-31T04:34:49;11.00;99.90
39525;DHT22;25203;50.754;6.978;2023-03-31T04:36:50;11.00;99.90
39525;DHT22;25203;50.754;6.978;2023-03-31T04:38:51;11.00;99.90
39525;DHT22;25203;50.754;6.978;2023-03-31T04:40:53;11.00;99.90
39525;DHT22;25203;50.754;6.978;2023-03-31T04:42:55;11.00;99.90
39525;DHT22;25203;50.754;6.978;2023-03-31T04:44:56;11.00;99.90
39525;DHT22;25203;50.754;6.978;2023-03-31T04:46:56;11.00;99.90
39525;DHT22;25203;50.754;6.978;2023-03-31T04:48:58;11.00;99.90
39525;DHT22;25203;50.754;6.978;2023-03-31T04:51:00;11.10;99.90
39525;DHT22;25203;50.754;6.978;2023-03-31T04:53:01;11.10;99.90
39525;DHT22;25203;50.754;6.978;2023-03-31T04:55:02;11.10;99.90
39525;DHT22;25203;50.754;6.978;2023-03-31T04:57:03;11.10;99.90
39525;DHT22;25203;50.754;6.978;2023-03-31T04:59:04;11.10;99.90
39525;DHT22;25203;50.754;6.978;2023-03-31T05:01:04;11.10;99.90
39525;DHT22;25203;50.754;6.978;2023-03-31T05:03:05;11.10;99.90
39525;DHT22;25203;50.754;6.978;2023-03-31T05:05:06;11.00;99.90
39525;DHT22;25203;50.754;6.978;2023-03-31T05:07:07;11.10;99.90
39525;DHT22;25203;50.754;6.978;2023-03-31T05:09:07;11.10;99.90
39525;DHT22;25203;50.754;6.978;2023-03-31T05:11:09;11.10;99.90
39525;DHT22;25203;50.754;6.978;2023-03-31T05:13:10;11.10;99.90
39525;DHT22;25203;50.754;6.978;2023-03-31T05:15:11;11.10;99.90
39525;DHT22;25203;50.754;6.978;2023-03-31T05:17:12;11.10;99.90
39525;DHT22;25203;50.754;6.978;2023-03-31T05:19:12;11.00;99.90
39525;DHT22;25203;50.754;6.978;2023-03-31T05:21:16;11.10;99.90
39525;DHT22;25203;50.754;6.978;2023-03-31T05:23:16;11.10;99.90
39525;DHT22;25203;50.754;6.978;2023-03-31T05:25:17;11.10;99.90
39525;DHT22;25203;50.754;6.978;2023-03-31T05:27:18;11.10;99.90
39525;DHT22;25203;50.754;6.978;2023-03-31T05:29:21;11.20;99.90
39525;DHT22;25203;50.754;6.978;2023-03-31T05:31:22;11.30;99.90
39525;DHT22;25203;50.754;6.978;2023-03-31T05:33:23;11.30;99.90
39525;DHT22;25203;50.754;6.978;2023-03-31T05:35:23;11.30;99.90
39525;DHT22;25203;50.754;6.978;2023-03-31T05:37:24;11.30;99.90
39525;DHT22;25203;50.754;6.978;2023-03-31T05:39:25;11.30;99.90
39525;DHT22;25203;50.754;6.978;2023-03-31T05:41:26;11.30;99.90
39525;DHT22;25203;50.754;6.978;2023-03-31T05:43:27;11.30;99.90
39525;DHT22;25203;50.754;6.978;2023-03-31T05:45:28;11.30;99.90
39525;DHT22;25203;50.754;6.978;2023-03-31T05:47:28;11.30;99.90
39525;DHT22;25203;50.754;6.978;2023-03-31T05:49:29;11.30;99.90
39525;DHT22;25203;50.754;6.978;2023-03-31T05:51:30;11.30;99.90
39525;DHT22;25203;50.754;6.978;2023-03-31T05:53:30;11.30;99.90
39525;DHT22;25203;50.754;6.978;2023-03-31T05:55:31;11.20;99.90
39525;DHT22;25203;50.754;6.978;2023-03-31T05:57:33;11.10;99.90
39525;DHT22;25203;50.754;6.978;2023-03-31T05:59:33;11.10;99.90
39525;DHT22;25203;50.754;6.978;2023-03-31T06:01:34;11.00;99.90
39525;DHT22;25203;50.754;6.978;2023-03-31T06:03:37;11.00;99.90
39525;DHT22;25203;50.754;6.978;2023-03-31T06:05:46;11.00;99.90
39525;DHT22;25203;50.754;6.978;2023-03-31T06:07:48;10.90;99.90
39525;DHT22;25203;50.754;6.978;2023-03-31T06:09:48;10.90;99.90
39525;DHT22;25203;50.754;6.978;2023-03-31T06:11:49;10.90;99.90
39525;DHT22;25203;50.754;6.978;2023-03-31T06:13:49;10.90;99.90
39525;DHT22;25203;50.754;6.978;2023-03-31T06:15:57;10.90;99.90
39525;DHT22;25203;50.754;6.978;2023-03-31T06:17:58;10.90;99.90
39525;DHT22;25203;50.754;6.978;2023-03-31T06:19:59;10.90;99.90
39525;DHT22;25203;50.754;6.978;2023-03-31T06:22:00;10.90;99.90
39525;DHT22;25203;50.754;6.978;2023-03-31T06:24:00;10.90;99.90
39525;DHT22;25203;50.754;6.978;2023-03-31T06:26:04;11.00;99.90
39525;DHT22;25203;50.754;6.978;2023-03-31T06:28:06;11.10;99.90
39525;DHT22;25203;50.754;6.978;2023-03-31T06:30:07;11.10;99.90
39525;DHT22;25203;50.754;6.978;2023-03-31T06:32:08;11.10;99.90
39525;DHT22;25203;50.754;6.978;2023-03-31T06:34:09;11.20;99.90
39525;DHT22;25203;50.754;6.978;2023-03-31T06:36:12;11.30;99.90
39525;DHT22;25203;50.754;6.978;2023-03-31T06:38:12;11.20;99.90
39525;DHT22;25203;50.754;6.978;2023-03-31T06:40:13;11.20;99.90
39525;DHT22;25203;50.754;6.978;2023-03-31T06:42:14;11.20;99.90
39525;DHT22;25203;50.754;6.978;2023-03-31T06:44:15;11.20;99.90
39525;DHT22;25203;50.754;6.978;2023-03-31T06:46:16;11.20;99.90
39525;DHT22;25203;50.754;6.978;2023-03-31T06:48:17;11.20;99.90
39525;DHT22;25203;50.754;6.978;2023-03-31T06:50:17;11.30;99.90
39525;DHT22;25203;50.754;6.978;2023-03-31T06:52:18;11.40;99.90
39525;DHT22;25203;50.754;6.978;2023-03-31T06:54:18;11.50;99.90
39525;DHT22;25203;50.754;6.978;2023-03-31T06:56:19;11.50;99.90
39525;DHT22;25203;50.754;6.978;2023-03-31T06:58:20;11.60;99.90
39525;DHT22;25203;50.754;6.978;2023-03-31T07:00:21;11.50;99.90
39525;DHT22;25203;50.754;6.978;2023-03-31T07:02:21;11.60;99.90
39525;DHT22;25203;50.754;6.978;2023-03-31T07:04:22;11.60;99.90
39525;DHT22;25203;50.754;6.978;2023-03-31T07:06:23;11.80;99.90
39525;DHT22;25203;50.754;6.978;2023-03-31T07:08:24;12.00;99.90
39525;DHT22;25203;50.754;6.978;2023-03-31T07:10:26;12.10;99.90
39525;DHT22;25203;50.754;6.978;2023-03-31T07:12:27;12.20;99.90
39525;DHT22;25203;50.754;6.978;2023-03-31T07:14:28;12.40;99.90
39525;DHT22;25203;50.754;6.978;2023-03-31T07:16:29;12.50;99.90
39525;DHT22;25203;50.754;6.978;2023-03-31T07:18:30;12.40;99.90
39525;DHT22;25203;50.754;6.978;2023-03-31T07:20:34;12.40;99.90
39525;DHT22;25203;50.754;6.978;2023-03-31T07:22:35;12.20;99.90
39525;DHT22;25203;50.754;6.978;2023-03-31T07:24:35;12.20;99.90
39525;DHT22;25203;50.754;6.978;2023-03-31T07:26:36;12.10;99.90
39525;DHT22;25203;50.754;6.978;2023-03-31T07:28:36;12.20;99.90
39525;DHT22;25203;50.754;6.978;2023-03-31T07:30:37;12.20;99.90
39525;DHT22;25203;50.754;6.978;2023-03-31T07:32:39;12.30;99.90
39525;DHT22;25203;50.754;6.978;2023-03-31T07:34:40;12.40;99.90
39525;DHT22;25203;50.754;6.978;2023-03-31T07:36:41;12.50;99.90
39525;DHT22;25203;50.754;6.978;2023-03-31T07:38:43;12.60;99.90
39525;DHT22;25203;50.754;6.978;2023-03-31T07:40:45;12.90;99.90
39525;DHT22;25203;50.754;6.978;2023-03-31T07:42:45;13.30;99.90
39525;DHT22;25203;50.754;6.978;2023-03-31T07:44:48;13.40;99.90
39525;DHT22;25203;50.754;6.978;2023-03-31T07:46:48;13.30;99.90
39525;DHT22;25203;50.754;6.978;2023-03-31T07:48:49;13.20;99.90
39525;DHT22;25203;50.754;6.978;2023-03-31T07:50:50;13.00;99.90
39525;DHT22;25203;50.754;6.978;2023-03-31T07:52:51;12.90;99.90
39525;DHT22;25203;50.754;6.978;2023-03-31T07:54:52;12.80;99.90
39525;DHT22;25203;50.754;6.978;2023-03-31T07:56:53;12.80;99.90
39525;DHT22;25203;50.754;6.978;2023-03-31T07:58:53;12.70;99.90
39525;DHT22;25203;50.754;6.978;2023-03-31T08:00:54;12.70;99.90
39525;DHT22;25203;50.754;6.978;2023-03-31T08:02:55;12.80;99.90
39525;DHT22;25203;50.754;6.978;2023-03-31T08:04:55;12.90;99.90
39525;DHT22;25203;50.754;6.978;2023-03-31T08:06:56;12.90;99.90
39525;DHT22;25203;50.754;6.978;2023-03-31T08:08:57;13.00;99.90
39525;DHT22;25203;50.754;6.978;2023-03-31T08:10:58;13.10;99.90
39525;DHT22;25203;50.754;6.978;2023-03-31T08:12:58;13.30;99.90
39525;DHT22;25203;50.754;6.978;2023-03-31T08:14:59;13.40;99.90
39525;DHT22;25203;50.754;6.978;2023-03-31T08:17:00;13.40;99.90
39525;DHT22;25203;50.754;6.978;2023-03-31T08:19:01;13.30;99.90
39525;DHT22;25203;50.754;6.978;2023-03-31T08:21:02;13.10;99.90
39525;DHT22;25203;50.754;6.978;2023-03-31T08:23:03;13.00;99.90
39525;DHT22;25203;50.754;6.978;2023-03-31T08:25:05;12.90;99.90
39525;DHT22;25203;50.754;6.978;2023-03-31T08:27:10;12.80;99.90
39525;DHT22;25203;50.754;6.978;2023-03-31T08:29:10;12.80;99.90
39525;DHT22;25203;50.754;6.978;2023-03-31T08:31:11;12.80;99.90
39525;DHT22;25203;50.754;6.978;2023-03-31T08:33:15;12.80;99.90
39525;DHT22;25203;50.754;6.978;2023-03-31T08:35:16;12.80;99.90
39525;DHT22;25203;50.754;6.978;2023-03-31T08:37:16;12.80;99.90
39525;DHT22;25203;50.754;6.978;2023-03-31T08:39:17;12.80;99.90
39525;DHT22;25203;50.754;6.978;2023-03-31T08:43:29;13.10;99.90
39525;DHT22;25203;50.754;6.978;2023-03-31T08:45:41;13.50;99.90
39525;DHT22;25203;50.754;6.978;2023-03-31T08:47:44;13.90;99.90
39525;DHT22;25203;50.754;6.978;2023-03-31T08:49:59;14.20;99.90
39525;DHT22;25203;50.754;6.978;2023-03-31T08:52:04;14.50;99.90
39525;DHT22;25203;50.754;6.978;2023-03-31T08:54:13;14.60;99.90
39525;DHT22;25203;50.754;6.978;2023-03-31T08:56:17;14.90;99.90
39525;DHT22;25203;50.754;6.978;2023-03-31T08:58:26;15.00;99.90
39525;DHT22;25203;50.754;6.978;2023-03-31T09:00:38;14.90;99.90
39525;DHT22;25203;50.754;6.978;2023-03-31T09:02:47;15.00;99.90
39525;DHT22;25203;50.754;6.978;2023-03-31T09:05:19;15.10;99.90
39525;DHT22;25203;50.754;6.978;2023-03-31T09:07:39;15.10;99.90
39525;DHT22;25203;50.754;6.978;2023-03-31T09:10:52;14.90;99.90
39525;DHT22;25203;50.754;6.978;2023-03-31T09:15:00;15.20;99.90
39525;DHT22;25203;50.754;6.978;2023-03-31T09:19:38;16.50;99.20
39525;DHT22;25203;50.754;6.978;2023-03-31T09:21:47;16.30;99.40
39525;DHT22;25203;50.754;6.978;2023-03-31T09:26:05;15.30;99.90
39525;DHT22;25203;50.754;6.978;2023-03-31T09:28:17;14.90;99.90
39525;DHT22;25203;50.754;6.978;2023-03-31T09:30:30;14.90;99.90
39525;DHT22;25203;50.754;6.978;2023-03-31T09:32:31;14.90;99.90
39525;DHT22;25203;50.754;6.978;2023-03-31T09:34:33;15.00;99.90
39525;DHT22;25203;50.754;6.978;2023-03-31T09:36:34;14.80;99.90
39525;DHT22;25203;50.754;6.978;2023-03-31T09:38:35;14.80;99.90
39525;DHT22;25203;50.754;6.978;2023-03-31T09:40:36;14.70;99.90
39525;DHT22;25203;50.754;6.978;2023-03-31T09:42:37;14.70;99.90
39525;DHT22;25203;50.754;6.978;2023-03-31T09:44:45;14.90;99.90
39525;DHT22;25203;50.754;6.978;2023-03-31T09:46:46;14.90;99.90
39525;DHT22;25203;50.754;6.978;2023-03-31T09:48:53;14.90;99.90
39525;DHT22;25203;50.754;6.978;2023-03-31T09:50:58;14.80;99.30
39525;DHT22;25203;50.754;6.978;2023-03-31T09:53:00;14.60;99.90
39525;DHT22;25203;50.754;6.978;2023-03-31T09:55:22;14.60;99.90
39525;DHT22;25203;50.754;6.978;2023-03-31T09:57:29;14.60;99.90
39525;DHT22;25203;50.754;6.978;2023-03-31T09:59:32;14.50;99.90
39525;DHT22;25203;50.754;6.978;2023-03-31T10:01:34;14.40;99.90
39525;DHT22;25203;50.754;6.978;2023-03-31T10:03:54;14.30;99.90
39525;DHT22;25203;50.754;6.978;2023-03-31T10:05:56;14.10;99.90
39525;DHT22;25203;50.754;6.978;2023-03-31T10:08:28;14.00;99.90
39525;DHT22;25203;50.754;6.978;2023-03-31T10:10:32;13.90;99.90
39525;DHT22;25203;50.754;6.978;2023-03-31T10:12:32;13.80;99.90
39525;DHT22;25203;50.754;6.978;2023-03-31T10:14:47;13.80;99.90
39525;DHT22;25203;50.754;6.978;2023-03-31T10:16:55;13.80;99.90
39525;DHT22;25203;50.754;6.978;2023-03-31T10:19:12;13.80;99.90
39525;DHT22;25203;50.754;6.978;2023-03-31T10:21:24;13.80;99.90
39525;DHT22;25203;50.754;6.978;2023-03-31T10:23:29;13.60;99.90
39525;DHT22;25203;50.754;6.978;2023-03-31T10:25:32;13.60;99.90
39525;DHT22;25203;50.754;6.978;2023-03-31T10:27:33;13.50;99.90
39525;DHT22;25203;50.754;6.978;2023-03-31T10:29:35;13.30;99.90
39525;DHT22;25203;50.754;6.978;2023-03-31T10:31:38;13.20;99.90
39525;DHT22;25203;50.754;6.978;2023-03-31T10:33:42;13.10;99.90
39525;DHT22;25203;50.754;6.978;2023-03-31T10:35:47;12.90;99.90
39525;DHT22;25203;50.754;6.978;2023-03-31T10:37:50;12.70;99.90
39525;DHT22;25203;50.754;6.978;2023-03-31T10:40:20;12.20;99.90
39525;DHT22;25203;50.754;6.978;2023-03-31T10:42:23;11.80;99.90
39525;DHT22;25203;50.754;6.978;2023-03-31T10:44:33;11.50;99.90
39525;DHT22;25203;50.754;6.978;2023-03-31T10:46:47;11.40;99.90
39525;DHT22;25203;50.754;6.978;2023-03-31T10:48:50;11.30;99.90
39525;DHT22;25203;50.754;6.978;2023-03-31T10:50:51;11.30;99.90
39525;DHT22;25203;50.754;6.978;2023-03-31T10:52:52;11.30;99.90
39525;DHT22;25203;50.754;6.978;2023-03-31T10:54:59;11.20;99.90
39525;DHT22;25203;50.754;6.978;2023-03-31T10:57:01;11.10;99.90
39525;DHT22;25203;50.754;6.978;2023-03-31T10:59:27;11.10;99.90
39525;DHT22;25203;50.754;6.978;2023-03-31T11:05:51;11.30;99.90
39525;DHT22;25203;50.754;6.978;2023-03-31T11:15:50;11.40;99.90
39525;DHT22;25203;50.754;6.978;2023-03-31T11:17:27;11.40;99.90
39525;DHT22;25203;50.754;6.978;2023-03-31T11:19:55;11.50;99.90
39525;DHT22;25203;50.754;6.978;2023-03-31T11:22:23;11.60;99.90
39525;DHT22;25203;50.754;6.978;2023-03-31T11:34:04;12.50;99.90
39525;DHT22;25203;50.754;6.978;2023-03-31T11:36:26;12.60;99.90
39525;DHT22;25203;50.754;6.978;2023-03-31T11:41:12;12.70;99.90
39525;DHT22;25203;50.754;6.978;2023-03-31T11:43:23;12.80;99.90
39525;DHT22;25203;50.754;6.978;2023-03-31T11:45:36;12.80;99.90
39525;DHT22;25203;50.754;6.978;2023-03-31T11:47:38;12.80;99.90
39525;DHT22;25203;50.754;6.978;2023-03-31T11:49:47;12.90;99.90
39525;DHT22;25203;50.754;6.978;2023-03-31T11:51:52;12.90;99.90
39525;DHT22;25203;50.754;6.978;2023-03-31T11:53:55;13.00;99.90
39525;DHT22;25203;50.754;6.978;2023-03-31T11:55:59;13.00;99.90
39525;DHT22;25203;50.754;6.978;2023-03-31T12:00:28;13.00;99.90
39525;DHT22;25203;50.754;6.978;2023-03-31T12:04:49;13.00;99.90
39525;DHT22;25203;50.754;6.978;2023-03-31T12:06:56;12.90;99.90
39525;DHT22;25203;50.754;6.978;2023-03-31T12:09:26;12.80;99.90
39525;DHT22;25203;50.754;6.978;2023-03-31T12:11:46;12.80;99.90
39525;DHT22;25203;50.754;6.978;2023-03-31T12:14:09;13.00;99.90
39525;DHT22;25203;50.754;6.978;2023-03-31T12:16:14;13.00;99.90
39525;DHT22;25203;50.754;6.978;2023-03-31T12:18:21;13.10;99.90
39525;DHT22;25203;50.754;6.978;2023-03-31T12:22:38;13.10;99.90
39525;DHT22;25203;50.754;6.978;2023-03-31T12:24:40;13.10;99.90
39525;DHT22;25203;50.754;6.978;2023-03-31T12:29:30;13.10;99.90
39525;DHT22;25203;50.754;6.978;2023-03-31T12:31:34;13.20;99.90
39525;DHT22;25203;50.754;6.978;2023-03-31T12:33:39;13.20;99.90
39525;DHT22;25203;50.754;6.978;2023-03-31T12:41:23;13.40;99.90
39525;DHT22;25203;50.754;6.978;2023-03-31T12:52:37;14.30;99.90
39525;DHT22;25203;50.754;6.978;2023-03-31T12:57:15;14.70;99.90
39525;DHT22;25203;50.754;6.978;2023-03-31T13:01:34;14.40;99.90
39525;DHT22;25203;50.754;6.978;2023-03-31T13:07:39;14.10;99.90
39525;DHT22;25203;50.754;6.978;2023-03-31T13:09:42;14.00;99.90
39525;DHT22;25203;50.754;6.978;2023-03-31T13:11:44;13.90;99.90
39525;DHT22;25203;50.754;6.978;2023-03-31T13:15:57;12.80;99.90
39525;DHT22;25203;50.754;6.978;2023-03-31T13:18:05;12.30;99.90
39525;DHT22;25203;50.754;6.978;2023-03-31T13:20:33;12.20;99.90
39525;DHT22;25203;50.754;6.978;2023-03-31T13:22:36;12.30;99.90
39525;DHT22;25203;50.754;6.978;2023-03-31T13:24:40;12.40;99.90
39525;DHT22;25203;50.754;6.978;2023-03-31T13:26:45;12.60;99.90
39525;DHT22;25203;50.754;6.978;2023-03-31T13:31:13;13.00;99.90
39525;DHT22;25203;50.754;6.978;2023-03-31T13:35:28;13.40;99.90
39525;DHT22;25203;50.754;6.978;2023-03-31T13:52:01;14.10;99.90
39525;DHT22;25203;50.754;6.978;2023-03-31T13:57:02;14.20;99.90
39525;DHT22;25203;50.754;6.978;2023-03-31T13:59:11;14.30;99.90
39525;DHT22;25203;50.754;6.978;2023-03-31T14:01:30;14.40;99.90
39525;DHT22;25203;50.754;6.978;2023-03-31T14:06:30;14.30;99.90
39525;DHT22;25203;50.754;6.978;2023-03-31T14:08:46;14.30;99.90
39525;DHT22;25203;50.754;6.978;2023-03-31T14:10:48;14.10;99.90
39525;DHT22;25203;50.754;6.978;2023-03-31T14:12:49;14.10;99.90
39525;DHT22;25203;50.754;6.978;2023-03-31T14:14:52;14.10;99.90
39525;DHT22;25203;50.754;6.978;2023-03-31T14:16:56;14.00;99.90
39525;DHT22;25203;50.754;6.978;2023-03-31T14:21:23;13.90;99.90
39525;DHT22;25203;50.754;6.978;2023-03-31T14:26:01;14.00;99.90
39525;DHT22;25203;50.754;6.978;2023-03-31T14:35:35;14.20;99.90
39525;DHT22;25203;50.754;6.978;2023-03-31T14:37:39;14.10;99.90
39525;DHT22;25203;50.754;6.978;2023-03-31T14:39:45;14.10;99.90
39525;DHT22;25203;50.754;6.978;2023-03-31T14:41:54;14.10;99.90
39525;DHT22;25203;50.754;6.978;2023-03-31T14:44:04;14.10;99.90
39525;DHT22;25203;50.754;6.978;2023-03-31T14:46:07;14.20;99.90
39525;DHT22;25203;50.754;6.978;2023-03-31T14:48:13;14.20;99.90
39525;DHT22;25203;50.754;6.978;2023-03-31T14:50:17;14.20;99.90
39525;DHT22;25203;50.754;6.978;2023-03-31T14:52:20;14.10;99.90
39525;DHT22;25203;50.754;6.978;2023-03-31T14:54:22;14.10;99.90
39525;DHT22;25203;50.754;6.978;2023-03-31T14:56:33;14.10;99.90
39525;DHT22;25203;50.754;6.978;2023-03-31T14:58:40;14.10;99.90
39525;DHT22;25203;50.754;6.978;2023-03-31T15:00:41;14.10;99.90
39525;DHT22;25203;50.754;6.978;2023-03-31T15:02:44;14.10;99.90
39525;DHT22;25203;50.754;6.978;2023-03-31T15:04:47;14.00;99.90
39525;DHT22;25203;50.754;6.978;2023-03-31T15:06:49;14.00;99.90
39525;DHT22;25203;50.754;6.978;2023-03-31T15:08:53;14.00;99.90
39525;DHT22;25203;50.754;6.978;2023-03-31T15:10:57;14.00;99.90
39525;DHT22;25203;50.754;6.978;2023-03-31T15:13:01;14.00;99.90
39525;DHT22;25203;50.754;6.978;2023-03-31T15:15:07;14.00;99.90
39525;DHT22;25203;50.754;6.978;2023-03-31T15:17:31;14.00;99.90
39525;DHT22;25203;50.754;6.978;2023-03-31T15:19:35;14.00;99.90
39525;DHT22;25203;50.754;6.978;2023-03-31T15:21:37;14.00;99.90
39525;DHT22;25203;50.754;6.978;2023-03-31T15:23:39;14.00;99.90
39525;DHT22;25203;50.754;6.978;2023-03-31T15:25:42;14.00;99.90
39525;DHT22;25203;50.754;6.978;2023-03-31T15:27:49;13.90;99.90
39525;DHT22;25203;50.754;6.978;2023-03-31T15:29:54;13.90;99.90
39525;DHT22;25203;50.754;6.978;2023-03-31T15:31:57;13.90;99.90
39525;DHT22;25203;50.754;6.978;2023-03-31T15:33:58;13.80;99.90
39525;DHT22;25203;50.754;6.978;2023-03-31T15:35:59;13.80;99.90
39525;DHT22;25203;50.754;6.978;2023-03-31T15:38:03;13.80;99.90
39525;DHT22;25203;50.754;6.978;2023-03-31T15:42:21;13.80;99.90
39525;DHT22;25203;50.754;6.978;2023-03-31T15:44:47;13.70;99.90